sensor_id;sensor_type;location;lat;lon;timestamp;pressure;altitude;pressure_sealevel;temperature;humidity
4814;BME280;15375;48.540;9.268;2023-05-21T00:00:57;96948.81;;;14.20;100.00
4814;BME280;15375;48.540;9.268;2023-05-21T00:03:23;96932.66;;;14.13;100.00
4814;BME280;15375;48.540;9.268;2023-05-21T00:05:51;96947.50;;;14.25;100.00
4814;BME280;15375;48.540;9.268;2023-05-21T00:08:16;96918.41;;;13.96;100.00
4814;BME280;15375;48.540;9.268;2023-05-21T00:10:42;96940.06;;;14.03;100.00
4814;BME280;15375;48.540;9.268;2023-05-21T00:13:07;96931.22;;;13.99;100.00
4814;BME280;15375;48.540;9.268;2023-05-21T00:15:33;96929.81;;;13.95;100.00
4814;BME280;15375;48.540;9.268;2023-05-21T00:17:58;96927.41;;;13.97;100.00
4814;BME280;15375;48.540;9.268;2023-05-21T00:20:24;96932.44;;;13.98;100.00
4814;BME280;15375;48.540;9.268;2023-05-21T00:22:49;96919.31;;;13.93;100.00
4814;BME280;15375;48.540;9.268;2023-05-21T00:25:15;96930.16;;;13.97;100.00
4814;BME280;15375;48.540;9.268;2023-05-21T00:27:40;96917.75;;;13.92;100.00
4814;BME280;15375;48.540;9.268;2023-05-21T00:30:06;96920.25;;;13.99;100.00
4814;BME280;15375;48.540;9.268;2023-05-21T00:32:31;96921.47;;;13.98;100.00
4814;BME280;15375;48.540;9.268;2023-05-21T00:34:56;96886.38;;;13.63;100.00
4814;BME280;15375;48.540;9.268;2023-05-21T00:37:22;96901.47;;;13.67;100.00
4814;BME280;15375;48.540;9.268;2023-05-21T00:39:48;96911.81;;;13.63;100.00
4814;BME280;15375;48.540;9.268;2023-05-21T00:42:15;96890.03;;;13.60;100.00
4814;BME280;15375;48.540;9.268;2023-05-21T00:44:45;96885.00;;;13.58;100.00
4814;BME280;15375;48.540;9.268;2023-05-21T00:47:12;96894.22;;;13.73;100.00
4814;BME280;15375;48.540;9.268;2023-05-21T00:49:38;96868.09;;;13.60;100.00
4814;BME280;15375;48.540;9.268;2023-05-21T00:52:04;96906.75;;;13.83;100.00
4814;BME280;15375;48.540;9.268;2023-05-21T00:54:30;96873.25;;;13.58;100.00
4814;BME280;15375;48.540;9.268;2023-05-21T00:56:56;96913.66;;;13.66;100.00
4814;BME280;15375;48.540;9.268;2023-05-21T00:59:22;96911.38;;;13.65;100.00
4814;BME280;15375;48.540;9.268;2023-05-21T01:01:48;96859.09;;;13.28;100.00
4814;BME280;15375;48.540;9.268;2023-05-21T01:04:21;96905.94;;;13.52;100.00
4814;BME280;15375;48.540;9.268;2023-05-21T01:06:47;96889.06;;;13.32;100.00
4814;BME280;15375;48.540;9.268;2023-05-21T01:09:12;96909.16;;;13.51;100.00
4814;BME280;15375;48.540;9.268;2023-05-21T01:11:40;96863.88;;;13.15;100.00
4814;BME280;15375;48.540;9.268;2023-05-21T01:14:07;96899.97;;;13.44;100.00
4814;BME280;15375;48.540;9.268;2023-05-21T01:16:39;96901.97;;;13.44;100.00
4814;BME280;15375;48.540;9.268;2023-05-21T01:19:06;96880.13;;;13.31;100.00
4814;BME280;15375;48.540;9.268;2023-05-21T01:21:36;96874.19;;;13.33;100.00
4814;BME280;15375;48.540;9.268;2023-05-21T01:24:04;96858.06;;;13.13;100.00
4814;BME280;15375;48.540;9.268;2023-05-21T01:26:32;96872.38;;;13.17;100.00
4814;BME280;15375;48.540;9.268;2023-05-21T01:28:58;96885.09;;;13.24;100.00
4814;BME280;15375;48.540;9.268;2023-05-21T01:31:30;96895.63;;;13.34;100.00
4814;BME280;15375;48.540;9.268;2023-05-21T01:33:59;96883.09;;;13.24;100.00
4814;BME280;15375;48.540;9.268;2023-05-21T01:36:31;96884.00;;;13.21;100.00
4814;BME280;15375;48.540;9.268;2023-05-21T01:41:44;96898.31;;;13.25;100.00
4814;BME280;15375;48.540;9.268;2023-05-21T01:44:11;96873.19;;;13.05;100.00
4814;BME280;15375;48.540;9.268;2023-05-21T01:46:37;96905.00;;;13.24;100.00
4814;BME280;15375;48.540;9.268;2023-05-21T01:49:04;96861.19;;;12.90;100.00
4814;BME280;15375;48.540;9.268;2023-05-21T01:51:31;96887.22;;;13.07;100.00
4814;BME280;15375;48.540;9.268;2023-05-21T01:53:56;96867.50;;;13.00;100.00
4814;BME280;15375;48.540;9.268;2023-05-21T01:56:22;96874.94;;;12.99;100.00
4814;BME280;15375;48.540;9.268;2023-05-21T01:58:53;96889.53;;;13.09;100.00
4814;BME280;15375;48.540;9.268;2023-05-21T02:01:20;96883.50;;;13.01;100.00
4814;BME280;15375;48.540;9.268;2023-05-21T02:03:46;96879.53;;;13.02;100.00
4814;BME280;15375;48.540;9.268;2023-05-21T02:06:11;96864.91;;;12.96;100.00
4814;BME280;15375;48.540;9.268;2023-05-21T02:08:37;96892.44;;;13.14;100.00
4814;BME280;15375;48.540;9.268;2023-05-21T02:11:02;96832.47;;;12.73;100.00
4814;BME280;15375;48.540;9.268;2023-05-21T02:13:28;96885.25;;;13.08;100.00
4814;BME280;15375;48.540;9.268;2023-05-21T02:15:53;96896.50;;;13.10;100.00
4814;BME280;15375;48.540;9.268;2023-05-21T02:18:20;96869.88;;;12.89;100.00
4814;BME280;15375;48.540;9.268;2023-05-21T02:20:45;96867.69;;;12.84;100.00
4814;BME280;15375;48.540;9.268;2023-05-21T02:23:11;96893.38;;;12.99;100.00
4814;BME280;15375;48.540;9.268;2023-05-21T02:25:36;96859.59;;;12.80;100.00
4814;BME280;15375;48.540;9.268;2023-05-21T02:28:01;96883.41;;;12.92;100.00
4814;BME280;15375;48.540;9.268;2023-05-21T02:30:27;96876.53;;;12.88;100.00
4814;BME280;15375;48.540;9.268;2023-05-21T02:32:52;96886.91;;;12.93;100.00
4814;BME280;15375;48.540;9.268;2023-05-21T02:35:18;96870.75;;;12.86;100.00
4814;BME280;15375;48.540;9.268;2023-05-21T02:37:43;96843.56;;;12.57;100.00
4814;BME280;15375;48.540;9.268;2023-05-21T02:40:09;96881.69;;;12.86;100.00
4814;BME280;15375;48.540;9.268;2023-05-21T02:42:35;96871.63;;;12.82;100.00
4814;BME280;15375;48.540;9.268;2023-05-21T02:45:07;96853.59;;;12.72;100.00
4814;BME280;15375;48.540;9.268;2023-05-21T02:47:33;96874.28;;;12.73;100.00
4814;BME280;15375;48.540;9.268;2023-05-21T02:49:59;96872.28;;;12.74;100.00
4814;BME280;15375;48.540;9.268;2023-05-21T02:52:24;96846.09;;;12.51;100.00
4814;BME280;15375;48.540;9.268;2023-05-21T02:54:50;96875.94;;;12.71;100.00
4814;BME280;15375;48.540;9.268;2023-05-21T02:57:16;96877.91;;;12.70;100.00
4814;BME280;15375;48.540;9.268;2023-05-21T02:59:42;96861.75;;;12.51;100.00
4814;BME280;15375;48.540;9.268;2023-05-21T03:02:08;96854.84;;;12.46;100.00
4814;BME280;15375;48.540;9.268;2023-05-21T03:04:33;96821.09;;;12.28;100.00
4814;BME280;15375;48.540;9.268;2023-05-21T03:07:06;96877.94;;;12.58;100.00
4814;BME280;15375;48.540;9.268;2023-05-21T03:09:34;96842.50;;;12.42;100.00
4814;BME280;15375;48.540;9.268;2023-05-21T03:11:59;96875.50;;;12.60;100.00
4814;BME280;15375;48.540;9.268;2023-05-21T03:14:24;96841.88;;;12.38;100.00
4814;BME280;15375;48.540;9.268;2023-05-21T03:16:50;96863.28;;;12.52;100.00
4814;BME280;15375;48.540;9.268;2023-05-21T03:19:15;96864.72;;;12.31;100.00
4814;BME280;15375;48.540;9.268;2023-05-21T03:21:40;96849.78;;;12.10;100.00
4814;BME280;15375;48.540;9.268;2023-05-21T03:24:07;96869.56;;;12.27;100.00
4814;BME280;15375;48.540;9.268;2023-05-21T03:26:33;96869.56;;;12.27;100.00
4814;BME280;15375;48.540;9.268;2023-05-21T03:28:59;96823.75;;;11.93;100.00
4814;BME280;15375;48.540;9.268;2023-05-21T03:31:25;96815.38;;;11.75;100.00
4814;BME280;15375;48.540;9.268;2023-05-21T03:33:51;96826.41;;;11.84;100.00
4814;BME280;15375;48.540;9.268;2023-05-21T03:36:18;96836.88;;;11.98;100.00
4814;BME280;15375;48.540;9.268;2023-05-21T03:38:43;96855.44;;;12.16;100.00
4814;BME280;15375;48.540;9.268;2023-05-21T03:41:09;96818.19;;;11.97;100.00
4814;BME280;15375;48.540;9.268;2023-05-21T03:43:35;96830.75;;;12.07;100.00
4814;BME280;15375;48.540;9.268;2023-05-21T03:46:00;96848.81;;;12.04;100.00
4814;BME280;15375;48.540;9.268;2023-05-21T03:48:26;96838.66;;;11.92;100.00
4814;BME280;15375;48.540;9.268;2023-05-21T03:50:51;96843.97;;;11.96;100.00
4814;BME280;15375;48.540;9.268;2023-05-21T03:53:16;96849.25;;;12.03;100.00
4814;BME280;15375;48.540;9.268;2023-05-21T03:55:42;96842.69;;;12.00;100.00
4814;BME280;15375;48.540;9.268;2023-05-21T03:58:08;96859.50;;;12.11;100.00
4814;BME280;15375;48.540;9.268;2023-05-21T04:00:35;96847.81;;;11.98;100.00
4814;BME280;15375;48.540;9.268;2023-05-21T04:03:05;96860.06;;;12.06;100.00
4814;BME280;15375;48.540;9.268;2023-05-21T04:05:31;96871.31;;;12.21;100.00
4814;BME280;15375;48.540;9.268;2023-05-21T04:07:57;96840.16;;;12.06;100.00
4814;BME280;15375;48.540;9.268;2023-05-21T04:10:23;96863.22;;;12.18;100.00
4814;BME280;15375;48.540;9.268;2023-05-21T04:12:48;96824.53;;;11.94;100.00
4814;BME280;15375;48.540;9.268;2023-05-21T04:15:16;96883.88;;;12.31;100.00
4814;BME280;15375;48.540;9.268;2023-05-21T04:17:43;96868.78;;;12.27;100.00
4814;BME280;15375;48.540;9.268;2023-05-21T04:20:10;96845.84;;;12.11;100.00
4814;BME280;15375;48.540;9.268;2023-05-21T04:22:36;96875.47;;;12.26;100.00
4814;BME280;15375;48.540;9.268;2023-05-21T04:25:02;96890.88;;;12.32;100.00
4814;BME280;15375;48.540;9.268;2023-05-21T04:27:27;96890.56;;;12.30;100.00
4814;BME280;15375;48.540;9.268;2023-05-21T04:29:52;96874.94;;;12.31;100.00
4814;BME280;15375;48.540;9.268;2023-05-21T04:32:18;96908.03;;;12.58;100.00
4814;BME280;15375;48.540;9.268;2023-05-21T04:34:45;96867.16;;;12.29;100.00
4814;BME280;15375;48.540;9.268;2023-05-21T04:37:11;96907.72;;;12.56;100.00
4814;BME280;15375;48.540;9.268;2023-05-21T04:39:36;96880.03;;;12.41;100.00
4814;BME280;15375;48.540;9.268;2023-05-21T04:42:02;96888.13;;;12.45;100.00
4814;BME280;15375;48.540;9.268;2023-05-21T04:44:28;96879.38;;;12.37;100.00
4814;BME280;15375;48.540;9.268;2023-05-21T04:46:53;96880.25;;;12.47;100.00
4814;BME280;15375;48.540;9.268;2023-05-21T04:49:19;96908.97;;;12.76;100.00
4814;BME280;15375;48.540;9.268;2023-05-21T04:51:45;96898.78;;;12.77;100.00
4814;BME280;15375;48.540;9.268;2023-05-21T04:54:11;96903.59;;;12.86;100.00
4814;BME280;15375;48.540;9.268;2023-05-21T04:56:36;96863.34;;;12.73;100.00
4814;BME280;15375;48.540;9.268;2023-05-21T04:59:01;96914.34;;;13.14;100.00
4814;BME280;15375;48.540;9.268;2023-05-21T05:01:28;96923.72;;;13.26;100.00
4814;BME280;15375;48.540;9.268;2023-05-21T05:03:53;96913.34;;;13.21;100.00
4814;BME280;15375;48.540;9.268;2023-05-21T05:06:19;96921.94;;;13.32;100.00
4814;BME280;15375;48.540;9.268;2023-05-21T05:08:45;96892.63;;;13.20;100.00
4814;BME280;15375;48.540;9.268;2023-05-21T05:11:11;96931.91;;;13.38;100.00
4814;BME280;15375;48.540;9.268;2023-05-21T05:13:38;96921.88;;;13.44;100.00
4814;BME280;15375;48.540;9.268;2023-05-21T05:16:04;96912.97;;;13.31;100.00
4814;BME280;15375;48.540;9.268;2023-05-21T05:18:30;96891.06;;;13.31;100.00
4814;BME280;15375;48.540;9.268;2023-05-21T05:20:55;96880.84;;;13.32;100.00
4814;BME280;15375;48.540;9.268;2023-05-21T05:23:20;96920.50;;;13.62;100.00
4814;BME280;15375;48.540;9.268;2023-05-21T05:25:46;96841.06;;;13.18;100.00
4814;BME280;15375;48.540;9.268;2023-05-21T05:28:11;96894.22;;;13.73;100.00
4814;BME280;15375;48.540;9.268;2023-05-21T05:30:36;96916.09;;;13.95;100.00
4814;BME280;15375;48.540;9.268;2023-05-21T05:33:02;96905.13;;;13.95;100.00
4814;BME280;15375;48.540;9.268;2023-05-21T05:35:27;96902.59;;;14.00;100.00
4814;BME280;15375;48.540;9.268;2023-05-21T05:37:52;96881.09;;;13.99;100.00
4814;BME280;15375;48.540;9.268;2023-05-21T05:40:18;96894.31;;;14.22;100.00
4814;BME280;15375;48.540;9.268;2023-05-21T05:42:43;96913.59;;;14.40;100.00
4814;BME280;15375;48.540;9.268;2023-05-21T05:45:09;96897.59;;;14.39;100.00
4814;BME280;15375;48.540;9.268;2023-05-21T05:47:35;96875.34;;;14.37;100.00
4814;BME280;15375;48.540;9.268;2023-05-21T05:50:00;96911.06;;;14.64;100.00
4814;BME280;15375;48.540;9.268;2023-05-21T05:52:25;96894.00;;;14.60;100.00
4814;BME280;15375;48.540;9.268;2023-05-21T05:54:51;96918.59;;;14.91;100.00
4814;BME280;15375;48.540;9.268;2023-05-21T05:57:16;96894.16;;;14.84;100.00
4814;BME280;15375;48.540;9.268;2023-05-21T05:59:41;96884.09;;;14.81;100.00
4814;BME280;15375;48.540;9.268;2023-05-21T06:02:07;96903.97;;;15.12;100.00
4814;BME280;15375;48.540;9.268;2023-05-21T06:04:32;96895.13;;;15.17;100.00
4814;BME280;15375;48.540;9.268;2023-05-21T06:06:57;96907.50;;;15.30;100.00
4814;BME280;15375;48.540;9.268;2023-05-21T06:09:24;96918.03;;;15.50;100.00
4814;BME280;15375;48.540;9.268;2023-05-21T06:11:49;96919.84;;;15.62;100.00
4814;BME280;15375;48.540;9.268;2023-05-21T06:14:15;96902.06;;;15.81;100.00
4814;BME280;15375;48.540;9.268;2023-05-21T06:16:40;96898.38;;;15.93;100.00
4814;BME280;15375;48.540;9.268;2023-05-21T06:19:05;96897.44;;;16.06;100.00
4814;BME280;15375;48.540;9.268;2023-05-21T06:21:31;96841.84;;;15.92;100.00
4814;BME280;15375;48.540;9.268;2023-05-21T06:23:56;96900.44;;;16.82;100.00
4814;BME280;15375;48.540;9.268;2023-05-21T06:26:21;96899.19;;;17.07;100.00
4814;BME280;15375;48.540;9.268;2023-05-21T06:28:48;96912.19;;;17.54;100.00
4814;BME280;15375;48.540;9.268;2023-05-21T06:31:14;96902.75;;;18.19;100.00
4814;BME280;15375;48.540;9.268;2023-05-21T06:33:40;96896.91;;;18.81;95.42
4814;BME280;15375;48.540;9.268;2023-05-21T06:36:06;96920.63;;;19.48;87.87
4814;BME280;15375;48.540;9.268;2023-05-21T06:38:31;96903.88;;;19.83;84.65
4814;BME280;15375;48.540;9.268;2023-05-21T06:40:56;96899.59;;;20.75;82.64
4814;BME280;15375;48.540;9.268;2023-05-21T06:43:22;96897.34;;;21.33;78.65
4814;BME280;15375;48.540;9.268;2023-05-21T06:45:48;96899.53;;;21.99;72.41
4814;BME280;15375;48.540;9.268;2023-05-21T06:48:13;96895.00;;;22.12;70.05
4814;BME280;15375;48.540;9.268;2023-05-21T06:50:41;96896.66;;;21.54;72.06
4814;BME280;15375;48.540;9.268;2023-05-21T06:53:06;96905.75;;;20.54;76.83
4814;BME280;15375;48.540;9.268;2023-05-21T06:55:32;96907.84;;;20.64;76.40
4814;BME280;15375;48.540;9.268;2023-05-21T06:57:57;96913.22;;;20.84;77.75
4814;BME280;15375;48.540;9.268;2023-05-21T07:00:23;96908.03;;;20.55;78.58
4814;BME280;15375;48.540;9.268;2023-05-21T07:02:48;96879.41;;;20.01;80.97
4814;BME280;15375;48.540;9.268;2023-05-21T07:05:13;96903.09;;;20.08;82.02
4814;BME280;15375;48.540;9.268;2023-05-21T07:07:39;96911.25;;;20.48;82.89
4814;BME280;15375;48.540;9.268;2023-05-21T07:10:05;96918.22;;;21.17;76.75
4814;BME280;15375;48.540;9.268;2023-05-21T07:12:30;96912.28;;;20.93;75.87
4814;BME280;15375;48.540;9.268;2023-05-21T07:14:55;96907.84;;;21.07;78.92
4814;BME280;15375;48.540;9.268;2023-05-21T07:17:21;96894.09;;;21.40;72.36
4814;BME280;15375;48.540;9.268;2023-05-21T07:19:46;96912.03;;;21.44;73.82
4814;BME280;15375;48.540;9.268;2023-05-21T07:22:11;96908.94;;;21.31;75.84
4814;BME280;15375;48.540;9.268;2023-05-21T07:24:37;96907.56;;;21.80;74.68
4814;BME280;15375;48.540;9.268;2023-05-21T07:27:02;96897.97;;;22.86;69.28
4814;BME280;15375;48.540;9.268;2023-05-21T07:29:28;96904.88;;;23.43;64.55
4814;BME280;15375;48.540;9.268;2023-05-21T07:31:53;96893.53;;;23.24;62.02
4814;BME280;15375;48.540;9.268;2023-05-21T07:34:19;96899.44;;;23.04;66.45
4814;BME280;15375;48.540;9.268;2023-05-21T07:36:44;96907.16;;;23.33;63.76
4814;BME280;15375;48.540;9.268;2023-05-21T07:39:09;96894.00;;;23.34;64.08
4814;BME280;15375;48.540;9.268;2023-05-21T07:41:35;96889.47;;;23.36;60.76
4814;BME280;15375;48.540;9.268;2023-05-21T07:44:00;96890.44;;;22.37;64.87
4814;BME280;15375;48.540;9.268;2023-05-21T07:46:26;96895.16;;;22.98;65.56
4814;BME280;15375;48.540;9.268;2023-05-21T07:48:51;96903.44;;;23.72;61.78
4814;BME280;15375;48.540;9.268;2023-05-21T07:51:16;96887.44;;;23.83;61.04
4814;BME280;15375;48.540;9.268;2023-05-21T07:53:42;96885.75;;;24.10;59.07
4814;BME280;15375;48.540;9.268;2023-05-21T07:56:07;96883.69;;;23.75;59.76
4814;BME280;15375;48.540;9.268;2023-05-21T07:58:35;96895.75;;;23.89;60.13
4814;BME280;15375;48.540;9.268;2023-05-21T08:01:11;96905.13;;;23.86;61.10
4814;BME280;15375;48.540;9.268;2023-05-21T08:03:36;96896.38;;;24.12;62.39
4814;BME280;15375;48.540;9.268;2023-05-21T08:06:02;96889.38;;;22.90;59.93
4814;BME280;15375;48.540;9.268;2023-05-21T08:08:27;96892.59;;;23.68;60.40
4814;BME280;15375;48.540;9.268;2023-05-21T08:10:53;96898.72;;;23.61;62.25
4814;BME280;15375;48.540;9.268;2023-05-21T08:13:18;96872.03;;;23.25;64.03
4814;BME280;15375;48.540;9.268;2023-05-21T08:15:44;96902.34;;;23.86;61.19
4814;BME280;15375;48.540;9.268;2023-05-21T08:18:09;96911.75;;;23.77;61.96
4814;BME280;15375;48.540;9.268;2023-05-21T08:20:35;96901.81;;;24.28;58.43
4814;BME280;15375;48.540;9.268;2023-05-21T08:23:01;96901.22;;;24.65;60.13
4814;BME280;15375;48.540;9.268;2023-05-21T08:25:26;96882.94;;;24.69;59.47
4814;BME280;15375;48.540;9.268;2023-05-21T08:27:53;96904.44;;;24.99;58.62
4814;BME280;15375;48.540;9.268;2023-05-21T08:30:19;96881.69;;;24.65;58.08
4814;BME280;15375;48.540;9.268;2023-05-21T08:32:44;96872.31;;;24.92;58.50
4814;BME280;15375;48.540;9.268;2023-05-21T08:35:10;96885.06;;;25.86;55.84
4814;BME280;15375;48.540;9.268;2023-05-21T08:37:35;96876.91;;;25.88;55.56
4814;BME280;15375;48.540;9.268;2023-05-21T08:40:01;96881.03;;;25.50;55.82
4814;BME280;15375;48.540;9.268;2023-05-21T08:42:47;96892.19;;;25.50;54.58
4814;BME280;15375;48.540;9.268;2023-05-21T08:45:14;96888.25;;;24.43;58.84
4814;BME280;15375;48.540;9.268;2023-05-21T08:47:42;96904.25;;;24.37;59.48
4814;BME280;15375;48.540;9.268;2023-05-21T08:50:13;96900.84;;;24.50;61.98
4814;BME280;15375;48.540;9.268;2023-05-21T08:52:39;96903.38;;;24.24;64.63
4814;BME280;15375;48.540;9.268;2023-05-21T08:55:08;96906.88;;;25.08;60.47
4814;BME280;15375;48.540;9.268;2023-05-21T08:57:35;96913.31;;;24.73;61.93
4814;BME280;15375;48.540;9.268;2023-05-21T09:00:01;96889.13;;;26.04;56.55
4814;BME280;15375;48.540;9.268;2023-05-21T09:02:28;96891.03;;;26.73;54.95
4814;BME280;15375;48.540;9.268;2023-05-21T09:04:54;96898.56;;;26.01;55.22
4814;BME280;15375;48.540;9.268;2023-05-21T09:07:26;96894.13;;;25.92;57.82
4814;BME280;15375;48.540;9.268;2023-05-21T09:09:57;96900.03;;;25.70;57.11
4814;BME280;15375;48.540;9.268;2023-05-21T09:12:26;96891.22;;;25.05;56.53
4814;BME280;15375;48.540;9.268;2023-05-21T09:14:52;96902.19;;;24.67;58.82
4814;BME280;15375;48.540;9.268;2023-05-21T09:17:18;96886.31;;;24.87;59.22
4814;BME280;15375;48.540;9.268;2023-05-21T09:22:34;96895.34;;;23.74;62.06
4814;BME280;15375;48.540;9.268;2023-05-21T09:25:03;96906.00;;;24.05;60.26
4814;BME280;15375;48.540;9.268;2023-05-21T09:27:29;96904.06;;;23.94;63.37
4814;BME280;15375;48.540;9.268;2023-05-21T09:29:54;96900.78;;;23.90;61.54
4814;BME280;15375;48.540;9.268;2023-05-21T09:32:20;96875.47;;;23.94;62.71
4814;BME280;15375;48.540;9.268;2023-05-21T09:34:46;96897.81;;;23.83;62.22
4814;BME280;15375;48.540;9.268;2023-05-21T09:37:12;96889.28;;;23.70;62.70
4814;BME280;15375;48.540;9.268;2023-05-21T09:39:39;96916.47;;;23.53;64.43
4814;BME280;15375;48.540;9.268;2023-05-21T09:42:04;96879.28;;;22.76;65.36
4814;BME280;15375;48.540;9.268;2023-05-21T09:44:33;96875.50;;;22.79;67.21
4814;BME280;15375;48.540;9.268;2023-05-21T09:47:00;96893.19;;;22.59;66.62
4814;BME280;15375;48.540;9.268;2023-05-21T09:49:26;96903.31;;;22.57;69.12
4814;BME280;15375;48.540;9.268;2023-05-21T09:51:58;96916.88;;;23.10;66.57
4814;BME280;15375;48.540;9.268;2023-05-21T09:54:25;96884.81;;;22.93;69.16
4814;BME280;15375;48.540;9.268;2023-05-21T09:56:54;96918.25;;;23.50;66.44
4814;BME280;15375;48.540;9.268;2023-05-21T09:59:20;96892.56;;;23.16;64.67
4814;BME280;15375;48.540;9.268;2023-05-21T10:01:49;96918.81;;;23.26;65.69
4814;BME280;15375;48.540;9.268;2023-05-21T10:04:16;96908.22;;;23.25;65.62
4814;BME280;15375;48.540;9.268;2023-05-21T10:06:42;96904.16;;;23.26;64.67
4814;BME280;15375;48.540;9.268;2023-05-21T10:09:14;96908.56;;;22.94;66.21
4814;BME280;15375;48.540;9.268;2023-05-21T10:11:43;96918.19;;;22.98;68.00
4814;BME280;15375;48.540;9.268;2023-05-21T10:14:14;96903.19;;;23.12;66.41
4814;BME280;15375;48.540;9.268;2023-05-21T10:16:41;96907.78;;;23.04;67.34
4814;BME280;15375;48.540;9.268;2023-05-21T10:19:06;96906.69;;;23.24;66.87
4814;BME280;15375;48.540;9.268;2023-05-21T10:21:35;96914.16;;;23.57;66.18
4814;BME280;15375;48.540;9.268;2023-05-21T10:24:01;96873.72;;;23.50;62.96
4814;BME280;15375;48.540;9.268;2023-05-21T10:26:27;96899.03;;;23.87;62.18
4814;BME280;15375;48.540;9.268;2023-05-21T10:28:55;96892.66;;;23.57;63.04
4814;BME280;15375;48.540;9.268;2023-05-21T10:31:21;96890.59;;;23.63;65.18
4814;BME280;15375;48.540;9.268;2023-05-21T10:33:47;96903.84;;;23.87;64.29
4814;BME280;15375;48.540;9.268;2023-05-21T10:36:15;96897.06;;;23.82;64.38
4814;BME280;15375;48.540;9.268;2023-05-21T10:38:42;96865.56;;;23.58;61.29
4814;BME280;15375;48.540;9.268;2023-05-21T10:41:10;96875.25;;;23.86;62.59
4814;BME280;15375;48.540;9.268;2023-05-21T10:49:53;96893.38;;;24.39;61.32
4814;BME280;15375;48.540;9.268;2023-05-21T10:52:37;96894.38;;;24.06;60.61
4814;BME280;15375;48.540;9.268;2023-05-21T10:55:40;96888.81;;;24.36;63.52
4814;BME280;15375;48.540;9.268;2023-05-21T11:00:55;96874.94;;;23.95;64.17
4814;BME280;15375;48.540;9.268;2023-05-21T11:03:22;96853.41;;;24.31;62.45
4814;BME280;15375;48.540;9.268;2023-05-21T11:05:51;96861.59;;;24.48;60.73
4814;BME280;15375;48.540;9.268;2023-05-21T11:08:21;96856.59;;;24.41;58.62
4814;BME280;15375;48.540;9.268;2023-05-21T11:13:18;96858.13;;;24.42;59.48
4814;BME280;15375;48.540;9.268;2023-05-21T11:16:15;96872.66;;;24.83;60.02
4814;BME280;15375;48.540;9.268;2023-05-21T11:26:26;96866.72;;;24.68;59.20
4814;BME280;15375;48.540;9.268;2023-05-21T11:31:30;96878.09;;;24.70;57.22
4814;BME280;15375;48.540;9.268;2023-05-21T11:34:18;96863.16;;;24.67;57.39
4814;BME280;15375;48.540;9.268;2023-05-21T11:36:48;96876.25;;;24.54;57.09
4814;BME280;15375;48.540;9.268;2023-05-21T11:41:57;96879.44;;;24.04;57.37
4814;BME280;15375;48.540;9.268;2023-05-21T11:44:42;96874.91;;;24.01;57.76
4814;BME280;15375;48.540;9.268;2023-05-21T11:47:12;96874.69;;;24.29;58.36
4814;BME280;15375;48.540;9.268;2023-05-21T11:49:39;96880.47;;;24.60;56.88
4814;BME280;15375;48.540;9.268;2023-05-21T11:52:06;96881.63;;;24.70;55.96
4814;BME280;15375;48.540;9.268;2023-05-21T11:54:36;96864.06;;;24.57;56.79
4814;BME280;15375;48.540;9.268;2023-05-21T11:57:06;96869.19;;;24.47;57.31
4814;BME280;15375;48.540;9.268;2023-05-21T11:59:32;96875.75;;;24.80;55.44
4814;BME280;15375;48.540;9.268;2023-05-21T12:01:59;96852.25;;;24.45;56.07
4814;BME280;15375;48.540;9.268;2023-05-21T12:04:34;96881.50;;;24.57;56.37
4814;BME280;15375;48.540;9.268;2023-05-21T12:07:06;96862.06;;;24.22;55.71
4814;BME280;15375;48.540;9.268;2023-05-21T12:09:38;96877.53;;;24.23;55.99
4814;BME280;15375;48.540;9.268;2023-05-21T12:12:05;96863.25;;;23.97;56.19
4814;BME280;15375;48.540;9.268;2023-05-21T12:14:31;96858.88;;;24.07;56.57
4814;BME280;15375;48.540;9.268;2023-05-21T12:16:57;96866.91;;;24.22;56.87
4814;BME280;15375;48.540;9.268;2023-05-21T12:19:22;96868.63;;;24.25;56.67
4814;BME280;15375;48.540;9.268;2023-05-21T12:21:48;96862.44;;;24.37;56.94
4814;BME280;15375;48.540;9.268;2023-05-21T12:24:14;96876.31;;;24.19;56.22
4814;BME280;15375;48.540;9.268;2023-05-21T12:26:40;96869.97;;;24.18;55.99
4814;BME280;15375;48.540;9.268;2023-05-21T12:29:07;96873.97;;;24.23;55.77
4814;BME280;15375;48.540;9.268;2023-05-21T12:31:32;96864.19;;;24.40;55.53
4814;BME280;15375;48.540;9.268;2023-05-21T12:33:57;96865.19;;;24.43;55.39
4814;BME280;15375;48.540;9.268;2023-05-21T12:36:28;96846.56;;;24.56;55.91
4814;BME280;15375;48.540;9.268;2023-05-21T12:38:54;96864.09;;;24.51;55.11
4814;BME280;15375;48.540;9.268;2023-05-21T12:41:20;96876.28;;;24.48;55.80
4814;BME280;15375;48.540;9.268;2023-05-21T12:43:46;96862.84;;;24.23;55.49
4814;BME280;15375;48.540;9.268;2023-05-21T12:46:12;96886.19;;;24.49;56.35
4814;BME280;15375;48.540;9.268;2023-05-21T12:48:57;96867.19;;;24.18;56.01
4814;BME280;15375;48.540;9.268;2023-05-21T12:51:22;96868.59;;;24.30;56.58
4814;BME280;15375;48.540;9.268;2023-05-21T12:53:48;96868.03;;;24.37;56.17
4814;BME280;15375;48.540;9.268;2023-05-21T12:56:14;96876.47;;;24.32;55.03
4814;BME280;15375;48.540;9.268;2023-05-21T12:58:41;96862.19;;;24.11;55.88
4814;BME280;15375;48.540;9.268;2023-05-21T13:01:07;96884.94;;;24.45;55.53
4814;BME280;15375;48.540;9.268;2023-05-21T13:03:34;96893.28;;;24.45;55.43
4814;BME280;15375;48.540;9.268;2023-05-21T13:06:00;96885.50;;;24.38;56.00
4814;BME280;15375;48.540;9.268;2023-05-21T13:08:26;96888.06;;;24.36;55.90
4814;BME280;15375;48.540;9.268;2023-05-21T13:10:52;96877.09;;;24.14;56.72
4814;BME280;15375;48.540;9.268;2023-05-21T13:13:17;96881.25;;;24.31;55.87
4814;BME280;15375;48.540;9.268;2023-05-21T13:15:42;96886.72;;;24.42;56.01
4814;BME280;15375;48.540;9.268;2023-05-21T13:18:08;96886.66;;;24.24;56.46
4814;BME280;15375;48.540;9.268;2023-05-21T13:20:35;96883.38;;;24.20;57.34
4814;BME280;15375;48.540;9.268;2023-05-21T13:23:00;96872.28;;;24.14;55.59
4814;BME280;15375;48.540;9.268;2023-05-21T13:25:27;96867.94;;;24.19;56.23
4814;BME280;15375;48.540;9.268;2023-05-21T13:27:53;96876.88;;;24.12;55.44
4814;BME280;15375;48.540;9.268;2023-05-21T13:30:20;96876.81;;;24.17;56.97
4814;BME280;15375;48.540;9.268;2023-05-21T13:32:46;96857.31;;;24.17;55.97